createdAt,value
2018-09-18T00:00:32.818Z,14.09
2018-09-18T00:01:42.927Z,14.04
2018-09-18T00:02:53.038Z,14.04
2018-09-18T00:04:02.876Z,13.99
2018-09-18T00:05:12.718Z,13.97
2018-09-18T00:06:22.851Z,13.96
2018-09-18T00:07:32.961Z,14
2018-09-18T00:08:42.531Z,14
2018-09-18T00:09:52.636Z,13.99
2018-09-18T00:11:01.938Z,13.99
2018-09-18T00:12:12.058Z,13.99
2018-09-18T00:13:21.369Z,13.96
2018-09-18T00:14:30.936Z,14
2018-09-18T00:15:40.777Z,13.95
2018-09-18T00:16:50.610Z,13.95
2018-09-18T00:18:00.730Z,13.97
2018-09-18T00:19:10.298Z,14.04
2018-09-18T00:20:19.866Z,13.99
2018-09-18T00:21:29.432Z,14
2018-09-18T00:22:39.538Z,13.95
2018-09-18T00:23:48.840Z,14.02
2018-09-18T00:24:58.709Z,14.02
2018-09-18T00:26:08.751Z,14.04
2018-09-18T00:27:18.324Z,13.92
2018-09-18T00:28:27.892Z,14.04
2018-09-18T00:29:37.734Z,13.99
2018-09-18T00:30:47.842Z,14.02
2018-09-18T00:31:57.677Z,13.99
2018-09-18T00:33:07.524Z,13.99
2018-09-18T00:34:17.143Z,13.97
2018-09-18T00:35:26.982Z,13.96
2018-09-18T00:36:37.096Z,14.03
2018-09-18T00:37:46.932Z,13.96
2018-09-18T00:38:56.778Z,13.99
2018-09-18T00:40:06.361Z,14.02
2018-09-18T00:41:16.201Z,13.99
2018-09-18T00:42:26.047Z,13.99
2018-09-18T00:43:35.625Z,13.96
2018-09-18T00:44:45.470Z,14
2018-09-18T00:45:55.361Z,14
2018-09-18T00:47:05.468Z,14
2018-09-18T00:48:15.630Z,13.97
2018-09-18T00:49:25.217Z,14.04
2018-09-18T00:50:35.054Z,14.03
2018-09-18T00:51:44.902Z,14.03
2018-09-18T00:52:54.776Z,13.95
2018-09-18T00:54:04.882Z,14.04
2018-09-18T00:55:14.718Z,14.04
2018-09-18T00:56:24.289Z,13.99
2018-09-18T00:57:34.402Z,13.99
2018-09-18T00:58:44.249Z,14
2018-09-18T00:59:53.817Z,14.04
2018-09-18T01:01:03.658Z,13.99
2018-09-18T01:02:13.780Z,14.02
2018-09-18T01:03:23.355Z,13.97
2018-09-18T01:04:32.927Z,14
2018-09-18T01:05:42.512Z,14.02
2018-09-18T01:06:51.811Z,13.95
2018-09-18T01:08:01.922Z,13.99
2018-09-18T01:09:11.770Z,13.99
2018-09-18T01:10:21.073Z,13.97
2018-09-18T01:11:30.102Z,13.99
2018-09-18T01:12:39.939Z,14.02
2018-09-18T01:13:50.081Z,13.96
2018-09-18T01:14:59.918Z,13.95
2018-09-18T01:16:09.484Z,13.95
2018-09-18T01:17:19.316Z,14.03
2018-09-18T01:18:29.156Z,13.84
2018-09-18T01:19:38.989Z,13.91
2018-09-18T01:20:48.826Z,13.82
2018-09-18T01:21:58.931Z,13.88
2018-09-18T01:23:09.067Z,13.89
2018-09-18T01:24:18.645Z,13.91
2018-09-18T01:25:28.271Z,13.91
2018-09-18T01:26:37.349Z,13.88
2018-09-18T01:27:47.190Z,13.92
2018-09-18T01:28:57.301Z,13.88
2018-09-18T01:30:06.878Z,13.87
2018-09-18T01:31:16.988Z,13.85
2018-09-18T01:32:26.291Z,13.79
2018-09-18T01:33:36.093Z,13.82
2018-09-18T01:34:45.934Z,13.79
2018-09-18T01:35:55.503Z,13.84
2018-09-18T01:37:05.351Z,13.81
2018-09-18T01:38:14.972Z,13.82
2018-09-18T01:39:24.548Z,13.84
2018-09-18T01:40:34.649Z,13.81
2018-09-18T01:41:44.213Z,13.82
2018-09-18T01:42:54.325Z,13.79
2018-09-18T01:44:04.163Z,13.84
2018-09-18T01:45:13.462Z,13.81
2018-09-18T01:46:22.768Z,13.73
2018-09-18T01:47:32.635Z,13.84
2018-09-18T01:48:42.208Z,13.82
2018-09-18T01:49:52.361Z,13.84
2018-09-18T01:51:02.210Z,13.79
2018-09-18T01:52:12.048Z,13.81
2018-09-18T01:53:21.882Z,13.73
2018-09-18T01:54:31.989Z,13.75
2018-09-18T01:55:41.876Z,13.75
2018-09-18T01:56:51.722Z,13.81
2018-09-18T01:58:01.834Z,13.79
2018-09-18T01:59:11.979Z,13.81
2018-09-18T02:00:21.823Z,13.78
2018-09-18T02:01:31.397Z,13.71
2018-09-18T02:02:41.238Z,13.77
2018-09-18T02:03:50.823Z,13.71
2018-09-18T02:05:00.934Z,13.81
2018-09-18T02:06:10.772Z,13.77
2018-09-18T02:07:20.081Z,13.75
2018-09-18T02:08:29.646Z,13.73
2018-09-18T02:09:39.763Z,13.75
2018-09-18T02:10:49.333Z,13.75
2018-09-18T02:11:58.911Z,13.71
2018-09-18T02:13:08.750Z,13.73
2018-09-18T02:14:18.868Z,13.77
2018-09-18T02:15:28.436Z,13.67
2018-09-18T02:16:38.275Z,13.73
2018-09-18T02:17:47.845Z,13.75
2018-09-18T02:18:57.410Z,13.79
2018-09-18T02:20:07.248Z,13.69
2018-09-18T02:21:17.092Z,13.71
2018-09-18T02:22:26.391Z,13.69
2018-09-18T02:23:36.211Z,13.71
2018-09-18T02:24:46.051Z,13.7
2018-09-18T02:25:56.165Z,13.71
2018-09-18T02:27:06.010Z,13.67
2018-09-18T02:28:16.122Z,13.69
2018-09-18T02:29:25.961Z,13.66
2018-09-18T02:30:35.261Z,13.67
2018-09-18T02:31:44.845Z,13.69
2018-09-18T02:32:54.966Z,13.63
2018-09-18T02:34:05.088Z,13.64
2018-09-18T02:35:15.473Z,13.69
2018-09-18T02:36:25.589Z,13.71
2018-09-18T02:37:35.435Z,13.67
2018-09-18T02:38:45.009Z,13.67
2018-09-18T02:39:55.117Z,13.67
2018-09-18T02:41:05.247Z,13.64
2018-09-18T02:42:14.818Z,13.63
2018-09-18T02:43:24.120Z,13.49
2018-09-18T02:44:33.698Z,13.62
2018-09-18T02:45:43.799Z,13.62
2018-09-18T02:46:53.939Z,13.63
2018-09-18T02:48:03.862Z,13.55
2018-09-18T02:49:13.974Z,13.59
2018-09-18T02:50:23.817Z,13.59
2018-09-18T02:51:33.921Z,13.55
2018-09-18T02:52:43.773Z,13.57
2018-09-18T02:53:53.071Z,13.59
2018-09-18T02:55:02.648Z,13.57
2018-09-18T02:56:12.767Z,13.55
2018-09-18T02:57:22.612Z,13.52
2018-09-18T02:58:32.726Z,13.54
2018-09-18T02:59:42.602Z,13.6
2018-09-18T03:00:52.452Z,13.59
2018-09-18T03:02:02.292Z,13.55
2018-09-18T03:03:12.139Z,13.51
2018-09-18T03:04:22.285Z,13.55
2018-09-18T03:05:31.366Z,13.59
2018-09-18T03:06:41.537Z,13.52
2018-09-18T03:07:51.398Z,13.52
2018-09-18T03:09:01.240Z,13.49
2018-09-18T03:10:11.082Z,13.55
2018-09-18T03:11:20.795Z,13.51
2018-09-18T03:12:31.271Z,13.52
2018-09-18T03:13:40.878Z,13.55
2018-09-18T03:14:50.724Z,13.55
2018-09-18T03:16:00.310Z,13.57
2018-09-18T03:17:10.425Z,13.59
2018-09-18T03:18:20.299Z,13.57
2018-09-18T03:19:30.409Z,13.6
2018-09-18T03:20:39.990Z,13.57
2018-09-18T03:21:49.566Z,13.51
2018-09-18T03:22:59.143Z,13.52
2018-09-18T03:24:08.991Z,13.6
2018-09-18T03:25:19.235Z,13.59
2018-09-18T03:26:28.545Z,13.59
2018-09-18T03:27:38.667Z,13.57
2018-09-18T03:28:48.298Z,13.51
2018-09-18T03:29:58.138Z,13.52
2018-09-18T03:31:07.455Z,13.46
2018-09-18T03:32:17.346Z,13.49
2018-09-18T03:33:27.288Z,13.52
2018-09-18T03:34:37.455Z,13.51
2018-09-18T03:35:47.524Z,13.54
2018-09-18T03:36:57.415Z,13.51
2018-09-18T03:38:07.014Z,13.38
2018-09-18T03:39:16.898Z,13.39
2018-09-18T03:40:26.476Z,13.44
2018-09-18T03:41:36.321Z,13.42
2018-09-18T03:42:46.441Z,13.48
2018-09-18T03:43:56.012Z,13.51
2018-09-18T03:45:05.856Z,13.49
2018-09-18T03:46:15.494Z,13.41
2018-09-18T03:47:25.066Z,13.51
2018-09-18T03:48:34.938Z,13.46
2018-09-18T03:49:44.509Z,13.48
2018-09-18T03:50:53.547Z,13.49
2018-09-18T03:52:03.708Z,13.54
2018-09-18T03:53:13.282Z,13.51
2018-09-18T03:54:23.400Z,13.45
2018-09-18T03:55:33.291Z,13.48
2018-09-18T03:56:42.887Z,13.51
2018-09-18T03:57:52.999Z,13.42
2018-09-18T03:59:03.154Z,13.52
2018-09-18T04:00:12.725Z,13.48
2018-09-18T04:01:22.565Z,13.48
2018-09-18T04:02:32.417Z,13.49
2018-09-18T04:03:42.532Z,13.49
2018-09-18T04:04:52.407Z,13.42
2018-09-18T04:06:02.266Z,13.54
2018-09-18T04:07:11.852Z,13.46
2018-09-18T04:08:21.963Z,13.45
2018-09-18T04:09:32.075Z,13.45
2018-09-18T04:10:41.923Z,13.52
2018-09-18T04:11:51.310Z,13.48
2018-09-18T04:13:01.438Z,13.46
2018-09-18T04:14:11.564Z,13.46
2018-09-18T04:15:21.685Z,13.39
2018-09-18T04:16:31.527Z,13.33
2018-09-18T04:17:41.666Z,13.38
2018-09-18T04:18:51.508Z,13.3
2018-09-18T04:20:01.681Z,13.41
2018-09-18T04:21:11.272Z,13.33
2018-09-18T04:22:20.850Z,13.42
2018-09-18T04:23:30.426Z,13.25
2018-09-18T04:24:40.538Z,13.32
2018-09-18T04:25:50.647Z,13.36
2018-09-18T04:27:00.531Z,13.28
2018-09-18T04:28:10.389Z,13.28
2018-09-18T04:29:20.237Z,13.36
2018-09-18T04:30:30.099Z,13.3
2018-09-18T04:31:39.672Z,13.33
2018-09-18T04:32:49.809Z,13.32
2018-09-18T04:33:59.648Z,13.32
2018-09-18T04:35:09.788Z,13.26
2018-09-18T04:36:19.630Z,13.26
2018-09-18T04:37:29.213Z,13.29
2018-09-18T04:38:39.106Z,13.29
2018-09-18T04:39:49.220Z,13.41
2018-09-18T04:40:59.067Z,13.33
2018-09-18T04:42:08.902Z,13.29
2018-09-18T04:43:18.751Z,13.25
2018-09-18T04:44:28.132Z,13.36
2018-09-18T04:45:37.981Z,13.25
2018-09-18T04:46:47.294Z,13.29
2018-09-18T04:47:57.407Z,13.28
2018-09-18T04:49:06.432Z,13.28
2018-09-18T04:50:16.277Z,13.22
2018-09-18T04:51:25.842Z,13.28
2018-09-18T04:52:35.723Z,13.23
2018-09-18T04:53:45.059Z,13.25
2018-09-18T04:54:55.459Z,13.22
2018-09-18T04:56:05.695Z,13.2
2018-09-18T04:57:15.812Z,13.15
2018-09-18T04:58:25.125Z,13.17
2018-09-18T04:59:34.970Z,13.17
2018-09-18T05:00:44.545Z,13.14
2018-09-18T05:01:54.757Z,13.14
2018-09-18T05:03:04.448Z,13.19
2018-09-18T05:04:13.480Z,13.17
2018-09-18T05:05:23.609Z,13.14
2018-09-18T05:06:32.645Z,13.14
2018-09-18T05:07:42.507Z,13.19
2018-09-18T05:08:52.650Z,13.23
2018-09-18T05:10:02.771Z,13.14
2018-09-18T05:11:12.891Z,13.25
2018-09-18T05:12:22.725Z,13.11
2018-09-18T05:13:32.082Z,13.22
2018-09-18T05:14:41.654Z,13.15
2018-09-18T05:15:51.224Z,13.2
2018-09-18T05:17:01.069Z,13.15
2018-09-18T05:18:10.932Z,13.17
2018-09-18T05:19:21.057Z,13.15
2018-09-18T05:20:30.634Z,13.2
2018-09-18T05:21:39.665Z,13.19
2018-09-18T05:22:49.507Z,13.15
2018-09-18T05:23:59.343Z,13.11
2018-09-18T05:25:08.641Z,13.07
2018-09-18T05:26:18.481Z,13.07
2018-09-18T05:27:28.594Z,13.07
2018-09-18T05:28:38.710Z,13.12
2018-09-18T05:29:48.554Z,13.03
2018-09-18T05:30:58.699Z,13.08
2018-09-18T05:32:08.268Z,12.97
2018-09-18T05:33:18.219Z,13.07
2018-09-18T05:34:27.869Z,13.07
2018-09-18T05:35:37.732Z,13.08
2018-09-18T05:36:47.301Z,13.03
2018-09-18T05:37:57.148Z,13.03
2018-09-18T05:39:06.993Z,13.07
2018-09-18T05:40:16.829Z,13.07
2018-09-18T05:41:26.938Z,13.05
2018-09-18T05:42:37.054Z,13.07
2018-09-18T05:43:47.167Z,13.05
2018-09-18T05:44:57.276Z,13.08
2018-09-18T05:46:06.571Z,13.03
2018-09-18T05:47:16.407Z,13.03
2018-09-18T05:48:26.261Z,13.04
2018-09-18T05:49:36.106Z,13.07
2018-09-18T05:50:45.992Z,13.03
2018-09-18T05:51:55.567Z,13.05
2018-09-18T05:53:05.406Z,13.1
2018-09-18T05:54:15.470Z,13.07
2018-09-18T05:55:25.040Z,13.19
2018-09-18T05:56:34.614Z,13.19
2018-09-18T05:57:44.453Z,13.04
2018-09-18T05:58:54.066Z,13.17
2018-09-18T06:00:04.171Z,13.19
2018-09-18T06:01:13.748Z,13.05
2018-09-18T06:02:23.248Z,13.15
2018-09-18T06:03:32.674Z,13.22
2018-09-18T06:04:42.518Z,13.15
2018-09-18T06:05:52.097Z,13.17
2018-09-18T06:07:02.203Z,13.17
2018-09-18T06:08:11.772Z,13.25
2018-09-18T06:09:21.892Z,13.28
2018-09-18T06:10:31.780Z,13.29
2018-09-18T06:11:41.899Z,13.32
2018-09-18T06:12:52.038Z,13.33
2018-09-18T06:14:01.646Z,13.33
2018-09-18T06:15:11.724Z,13.44
2018-09-18T06:16:21.562Z,13.33
2018-09-18T06:17:31.433Z,13.36
2018-09-18T06:18:41.472Z,13.42
2018-09-18T06:19:51.915Z,13.45
2018-09-18T06:21:01.544Z,13.48
2018-09-18T06:22:11.720Z,13.49
2018-09-18T06:23:21.561Z,13.52
2018-09-18T06:24:30.597Z,13.55
2018-09-18T06:25:40.440Z,13.52
2018-09-18T06:26:50.285Z,13.59
2018-09-18T06:27:59.866Z,13.54
2018-09-18T06:29:09.160Z,13.71
2018-09-18T06:30:19.141Z,13.77
2018-09-18T06:31:29.355Z,13.75
2018-09-18T06:32:39.343Z,13.75
2018-09-18T06:33:48.912Z,13.77
2018-09-18T06:34:59.020Z,13.79
2018-09-18T06:36:09.171Z,13.85
2018-09-18T06:37:19.016Z,13.88
2018-09-18T06:38:28.878Z,13.84
2018-09-18T06:39:38.992Z,14.02
2018-09-18T06:40:48.294Z,13.84
2018-09-18T06:41:58.166Z,14.04
2018-09-18T06:43:07.792Z,13.97
2018-09-18T06:44:17.637Z,13.95
2018-09-18T06:45:27.748Z,14.04
2018-09-18T06:46:37.626Z,14.04
2018-09-18T06:47:47.776Z,14.06
2018-09-18T06:48:57.991Z,14.14
2018-09-18T06:50:07.834Z,14.24
2018-09-18T06:51:17.415Z,14.25
2018-09-18T06:52:26.988Z,14.33
2018-09-18T06:53:37.094Z,14.43
2018-09-18T06:54:46.983Z,14.52
2018-09-18T06:55:57.092Z,14.51
2018-09-18T06:57:06.933Z,14.65
2018-09-18T06:58:16.510Z,14.6
2018-09-18T06:59:26.352Z,14.55
2018-09-18T07:00:36.510Z,14.61
2018-09-18T07:01:46.389Z,14.65
2018-09-18T07:02:56.227Z,14.64
2018-09-18T07:04:06.082Z,14.72
2018-09-18T07:05:15.662Z,14.73
2018-09-18T07:06:25.512Z,14.86
2018-09-18T07:07:35.089Z,14.91
2018-09-18T07:08:44.664Z,15.01
2018-09-18T07:09:53.964Z,15.07
2018-09-18T07:11:03.001Z,15.21
2018-09-18T07:12:12.353Z,15.06
2018-09-18T07:13:22.467Z,15.02
2018-09-18T07:14:31.769Z,15.16
2018-09-18T07:15:41.621Z,15.21
2018-09-18T07:16:51.199Z,15.28
2018-09-18T07:18:01.583Z,15.32
2018-09-18T07:19:11.636Z,15.27
2018-09-18T07:20:21.476Z,15.27
2018-09-18T07:21:31.588Z,15.35
2018-09-18T07:22:41.705Z,15.36
2018-09-18T07:23:51.832Z,15.41
2018-09-18T07:25:02.291Z,15.46
2018-09-18T07:26:12.429Z,15.57
2018-09-18T07:27:22.003Z,15.72
2018-09-18T07:28:32.112Z,15.83
2018-09-18T07:29:42.228Z,15.8
2018-09-18T07:30:52.079Z,15.76
2018-09-18T07:32:01.931Z,15.92
2018-09-18T07:33:11.782Z,15.96
2018-09-18T07:34:21.621Z,15.97
2018-09-18T07:35:31.749Z,15.97
2018-09-18T07:36:41.049Z,16.04
2018-09-18T07:37:50.899Z,16.04
2018-09-18T07:39:00.470Z,16.07
2018-09-18T07:40:10.616Z,16.15
2018-09-18T07:41:20.486Z,16.23
2018-09-18T07:42:30.606Z,16.3
2018-09-18T07:43:40.734Z,16.27
2018-09-18T07:44:50.337Z,16.39
2018-09-18T07:46:00.193Z,16.38
2018-09-18T07:47:10.035Z,16.41
2018-09-18T07:48:20.153Z,16.49
2018-09-18T07:49:30.210Z,16.46
2018-09-18T07:50:40.146Z,16.52
2018-09-18T07:51:50.369Z,16.68
2018-09-18T07:53:00.221Z,16.75
2018-09-18T07:54:10.066Z,16.83
2018-09-18T07:55:19.650Z,16.97
2018-09-18T07:56:29.504Z,17.04
2018-09-18T07:57:39.320Z,17.07
2018-09-18T07:58:48.946Z,17.21
2018-09-18T07:59:58.793Z,17.19
2018-09-18T08:01:08.649Z,17.19
2018-09-18T08:02:18.221Z,17.25
2018-09-18T08:03:28.074Z,17.21
2018-09-18T08:04:37.700Z,17.44
2018-09-18T08:05:47.849Z,17.46
2018-09-18T08:06:57.425Z,17.41
2018-09-18T08:08:07.279Z,17.56
2018-09-18T08:09:17.397Z,17.55
2018-09-18T08:10:26.701Z,17.55
2018-09-18T08:11:36.549Z,17.75
2018-09-18T08:12:46.150Z,17.89
2018-09-18T08:13:55.993Z,17.92
2018-09-18T08:15:05.565Z,17.97
2018-09-18T08:16:15.684Z,18
2018-09-18T08:17:25.810Z,18.12
2018-09-18T08:18:35.624Z,18.25
2018-09-18T08:19:46.627Z,18.2
2018-09-18T08:20:57.109Z,18.1
2018-09-18T08:22:07.267Z,18.17
2018-09-18T08:23:17.233Z,18.35
2018-09-18T08:24:27.355Z,18.41
2018-09-18T08:25:36.998Z,18.58
2018-09-18T08:26:45.743Z,18.69
2018-09-18T08:27:56.108Z,18.73
2018-09-18T08:29:05.980Z,18.65
2018-09-18T08:30:15.827Z,18.62
2018-09-18T08:31:25.133Z,18.65
2018-09-18T08:32:35.209Z,18.73
2018-09-18T08:33:45.732Z,18.94
2018-09-18T08:34:55.609Z,18.95
2018-09-18T08:36:05.466Z,18.95
2018-09-18T08:37:15.592Z,18.98
2018-09-18T08:38:25.434Z,19.21
2018-09-18T08:39:35.417Z,19.51
2018-09-18T08:40:44.715Z,19.59
2018-09-18T08:41:54.614Z,19.71
2018-09-18T08:43:04.823Z,19.71
2018-09-18T08:44:15.017Z,19.96
2018-09-18T08:45:24.968Z,19.95
2018-09-18T08:46:34.856Z,20.08
2018-09-18T08:47:44.986Z,20.29
2018-09-18T08:48:54.958Z,20.41
2018-09-18T08:50:05.129Z,20.41
2018-09-18T08:51:14.768Z,20.5
2018-09-18T08:52:24.372Z,20.62
2018-09-18T08:53:34.514Z,20.7
2018-09-18T08:54:44.129Z,20.69
2018-09-18T08:55:54.333Z,20.76
2018-09-18T08:57:04.475Z,20.7
2018-09-18T08:58:14.654Z,20.7
2018-09-18T08:59:24.287Z,20.79
2018-09-18T09:00:33.860Z,20.85
2018-09-18T09:01:43.617Z,20.94
2018-09-18T09:02:53.557Z,21.17
2018-09-18T09:04:03.673Z,21.32
2018-09-18T09:05:13.719Z,21.25
2018-09-18T09:06:23.902Z,21.25
2018-09-18T09:07:34.279Z,21.19
2018-09-18T09:08:44.773Z,21.43
2018-09-18T09:09:54.700Z,21.58
2018-09-18T09:11:04.400Z,21.5
2018-09-18T09:12:14.550Z,21.62
2018-09-18T09:13:24.175Z,21.61
2018-09-18T09:14:34.689Z,21.98
2018-09-18T09:15:44.643Z,21.91
2018-09-18T09:16:54.257Z,22.4
2018-09-18T09:18:04.356Z,22.62
2018-09-18T09:19:15.019Z,22.79
2018-09-18T09:20:24.926Z,22.79
2018-09-18T09:21:34.827Z,22.64
2018-09-18T09:22:44.957Z,22.51
2018-09-18T09:23:54.445Z,22.4
2018-09-18T09:25:03.525Z,22.47
2018-09-18T09:26:13.691Z,22.42
2018-09-18T09:27:23.715Z,22.8
2018-09-18T09:28:33.753Z,23
2018-09-18T09:29:44.169Z,23.05
2018-09-18T09:30:54.465Z,23.15
2018-09-18T09:32:04.172Z,23.16
2018-09-18T09:33:14.265Z,23.19
2018-09-18T09:34:24.150Z,23.31
2018-09-18T09:35:34.145Z,23.46
2018-09-18T09:36:44.045Z,23.42
2018-09-18T09:37:53.746Z,23.38
2018-09-18T09:39:03.867Z,23.54
2018-09-18T09:40:13.770Z,23.61
2018-09-18T09:41:23.617Z,23.51
2018-09-18T09:42:33.667Z,23.66
2018-09-18T09:43:43.709Z,23.57
2018-09-18T09:44:53.542Z,23.85
2018-09-18T09:46:03.564Z,23.79
2018-09-18T09:47:13.420Z,23.78
2018-09-18T09:48:23.265Z,23.8
2018-09-18T09:49:32.911Z,23.73
2018-09-18T09:50:42.488Z,23.87
2018-09-18T09:51:52.337Z,23.98
2018-09-18T09:53:01.912Z,24.05
2018-09-18T09:54:11.794Z,24.15
2018-09-18T09:55:21.648Z,24.15
2018-09-18T09:56:31.224Z,24.12
2018-09-18T09:57:40.805Z,24.28
2018-09-18T09:58:50.657Z,24.42
2018-09-18T10:00:00.772Z,24.46
2018-09-18T10:01:10.893Z,24.49
2018-09-18T10:02:20.855Z,24.57
2018-09-18T10:03:30.710Z,24.46
2018-09-18T10:04:40.568Z,24.43
2018-09-18T10:05:50.419Z,24.78
2018-09-18T10:07:00.534Z,24.77
2018-09-18T10:08:10.660Z,24.78
2018-09-18T10:09:20.506Z,24.9
2018-09-18T10:10:30.536Z,25.23
2018-09-18T10:11:40.711Z,25.32
2018-09-18T10:12:50.290Z,25.32
2018-09-18T10:14:00.173Z,25.3
2018-09-18T10:15:10.101Z,25.45
2018-09-18T10:16:20.047Z,25.61
2018-09-18T10:17:29.896Z,25.62
2018-09-18T10:18:39.523Z,25.6
2018-09-18T10:19:49.379Z,25.65
2018-09-18T10:20:58.969Z,25.62
2018-09-18T10:22:08.557Z,25.62
2018-09-18T10:23:17.885Z,25.73
2018-09-18T10:24:28.082Z,25.79
2018-09-18T10:25:38.301Z,25.79
2018-09-18T10:26:48.697Z,25.67
2018-09-18T10:27:58.480Z,25.8
2018-09-18T10:29:08.842Z,25.87
2018-09-18T10:30:18.762Z,26.06
2018-09-18T10:31:28.957Z,25.83
2018-09-18T10:32:38.304Z,25.9
2018-09-18T10:33:48.373Z,26.09
2018-09-18T10:34:58.009Z,26.05
2018-09-18T10:36:07.656Z,26.26
2018-09-18T10:37:17.803Z,26.51
2018-09-18T10:38:28.019Z,26.45
2018-09-18T10:39:37.928Z,26.3
2018-09-18T10:40:47.996Z,26.52
2018-09-18T10:41:58.844Z,26.65
2018-09-18T10:43:09.556Z,26.54
2018-09-18T10:44:19.177Z,26.55
2018-09-18T10:45:29.392Z,26.4
2018-09-18T10:46:39.307Z,26.43
2018-09-18T10:47:49.279Z,26.57
2018-09-18T10:48:59.165Z,26.54
2018-09-18T10:50:08.777Z,26.7
2018-09-18T10:51:18.900Z,26.73
2018-09-18T10:52:28.815Z,26.57
2018-09-18T10:53:38.782Z,26.62
2018-09-18T10:54:48.365Z,26.76
2018-09-18T10:55:58.217Z,26.82
2018-09-18T10:57:07.527Z,26.88
2018-09-18T10:58:17.378Z,27.03
2018-09-18T10:59:26.689Z,27.04
2018-09-18T11:00:36.568Z,26.97
2018-09-18T11:01:46.842Z,26.99
2018-09-18T11:02:56.857Z,26.95
2018-09-18T11:04:07.159Z,27.14
2018-09-18T11:05:17.077Z,27.28
2018-09-18T11:06:26.960Z,27.21
2018-09-18T11:07:37.740Z,27.19
2018-09-18T11:08:48.475Z,27.21
2018-09-18T11:09:58.564Z,27.13
2018-09-18T11:11:08.035Z,27.19
2018-09-18T11:12:17.847Z,27.18
2018-09-18T11:13:27.373Z,27.29
2018-09-18T11:14:37.755Z,27.43
2018-09-18T11:15:48.253Z,27.62
2018-09-18T11:16:58.755Z,27.5
2018-09-18T11:18:08.734Z,27.62
2018-09-18T11:19:18.679Z,27.63
2018-09-18T11:20:28.298Z,27.69
2018-09-18T11:21:38.438Z,27.81
2018-09-18T11:22:48.642Z,27.92
2018-09-18T11:23:57.781Z,27.97
2018-09-18T11:25:07.252Z,27.93
2018-09-18T11:26:17.368Z,27.92
2018-09-18T11:27:27.307Z,27.88
2018-09-18T11:28:37.307Z,28.03
2018-09-18T11:29:47.541Z,28.06
2018-09-18T11:30:57.473Z,28.18
2018-09-18T11:32:07.447Z,28.3
2018-09-18T11:33:17.357Z,28.24
2018-09-18T11:34:26.973Z,28.22
2018-09-18T11:35:37.215Z,28.25
2018-09-18T11:36:47.069Z,28.24
2018-09-18T11:37:56.912Z,28.19
2018-09-18T11:39:06.493Z,28.25
2018-09-18T11:40:16.317Z,28.24
2018-09-18T11:41:25.627Z,28.39
2018-09-18T11:42:35.479Z,28.46
2018-09-18T11:43:45.630Z,28.48
2018-09-18T11:44:55.757Z,28.56
2018-09-18T11:46:06.696Z,28.54
2018-09-18T11:47:16.436Z,28.44
2018-09-18T11:48:26.570Z,28.62
2018-09-18T11:49:35.881Z,28.59
2018-09-18T11:50:46.071Z,28.44
2018-09-18T11:51:55.922Z,28.66
2018-09-18T11:53:06.056Z,28.78
2018-09-18T11:54:15.902Z,28.81
2018-09-18T11:55:25.493Z,28.78
2018-09-18T11:56:35.694Z,28.93
2018-09-18T11:57:45.957Z,29
2018-09-18T11:58:56.089Z,29.19
2018-09-18T12:00:05.411Z,29.21
2018-09-18T12:01:14.995Z,29.31
2018-09-18T12:02:24.580Z,29.37
2018-09-18T12:03:34.164Z,29.49
2018-09-18T12:04:44.442Z,29.42
2018-09-18T12:05:54.950Z,29.49
2018-09-18T12:07:04.531Z,29.63
2018-09-18T12:08:13.580Z,29.68
2018-09-18T12:09:23.200Z,29.82
2018-09-18T12:10:33.061Z,29.82
2018-09-18T12:11:42.651Z,29.9
2018-09-18T12:12:52.781Z,29.85
2018-09-18T12:14:02.396Z,30
2018-09-18T12:15:11.987Z,30.01
2018-09-18T12:16:21.878Z,29.95
2018-09-18T12:17:32.110Z,30.02
2018-09-18T12:18:41.689Z,29.94
2018-09-18T12:19:51.268Z,30.02
2018-09-18T12:21:00.847Z,30.16
2018-09-18T12:22:10.753Z,30.22
2018-09-18T12:23:20.869Z,30.23
2018-09-18T12:24:30.453Z,30.08
2018-09-18T12:25:39.770Z,30
2018-09-18T12:26:49.633Z,30.01
2018-09-18T12:27:59.226Z,30.17
2018-09-18T12:29:08.322Z,30.32
2018-09-18T12:30:18.453Z,30.39
2018-09-18T12:31:28.034Z,30.39
2018-09-18T12:32:38.170Z,30.42
2018-09-18T12:33:48.041Z,30.51
2018-09-18T12:34:58.220Z,30.45
2018-09-18T12:36:07.806Z,30.61
2018-09-18T12:37:17.660Z,30.49
2018-09-18T12:38:27.255Z,30.53
2018-09-18T12:39:36.846Z,30.51
2018-09-18T12:40:46.700Z,30.54
2018-09-18T12:41:57.113Z,30.34
2018-09-18T12:43:07.609Z,30.39
2018-09-18T12:44:17.208Z,30.43
2018-09-18T12:45:27.364Z,30.42
2018-09-18T12:46:37.241Z,30.39
2018-09-18T12:47:46.829Z,30.38
2018-09-18T12:48:57.252Z,30.43
2018-09-18T12:50:07.828Z,30.45
2018-09-18T12:51:18.359Z,30.6
2018-09-18T12:52:28.215Z,30.62
2018-09-18T12:53:38.486Z,30.23
2018-09-18T12:54:48.217Z,30.53
2018-09-18T12:55:58.498Z,30.55
2018-09-18T12:57:08.818Z,30.53
2018-09-18T12:58:19.476Z,30.79
2018-09-18T12:59:29.675Z,30.73
2018-09-18T13:00:40.030Z,30.72
2018-09-18T13:01:49.890Z,30.77
2018-09-18T13:02:59.751Z,30.72
2018-09-18T13:04:09.609Z,30.77
2018-09-18T13:05:19.495Z,30.86
2018-09-18T13:06:29.363Z,30.8
2018-09-18T13:07:39.989Z,30.7
2018-09-18T13:08:50.120Z,30.77
2018-09-18T13:09:59.911Z,30.8
2018-09-18T13:11:10.146Z,30.77
2018-09-18T13:12:20.031Z,30.79
2018-09-18T13:13:29.897Z,30.83
2018-09-18T13:14:40.267Z,30.86
2018-09-18T13:15:50.687Z,30.91
2018-09-18T13:17:00.568Z,30.82
2018-09-18T13:18:10.469Z,30.82
2018-09-18T13:19:19.830Z,30.76
2018-09-18T13:20:29.686Z,30.91
2018-09-18T13:21:39.065Z,30.83
2018-09-18T13:22:48.389Z,30.95
2018-09-18T13:23:58.580Z,30.89
2018-09-18T13:25:08.165Z,30.79
2018-09-18T13:26:18.018Z,30.89
2018-09-18T13:27:27.884Z,30.89
2018-09-18T13:28:38.005Z,30.89
2018-09-18T13:29:48.127Z,30.99
2018-09-18T13:30:58.279Z,31.06
2018-09-18T13:32:08.709Z,31.12
2018-09-18T13:33:18.324Z,31.14
2018-09-18T13:34:28.444Z,31.14
2018-09-18T13:35:38.304Z,31.14
2018-09-18T13:36:47.892Z,31.19
2018-09-18T13:37:57.749Z,30.97
2018-09-18T13:39:07.923Z,30.95
2018-09-18T13:40:17.787Z,31.16
2018-09-18T13:41:28.511Z,31.2
2018-09-18T13:42:38.374Z,31.28
2018-09-18T13:43:48.244Z,31.26
2018-09-18T13:44:58.135Z,31.36
2018-09-18T13:46:08.264Z,31.34
2018-09-18T13:47:18.449Z,31.36
2018-09-18T13:48:27.517Z,31.23
2018-09-18T13:49:37.406Z,31.41
2018-09-18T13:50:47.568Z,31.36
2018-09-18T13:51:57.636Z,31.53
2018-09-18T13:53:07.765Z,31.47
2018-09-18T13:54:17.348Z,31.62
2018-09-18T13:55:27.447Z,31.66
2018-09-18T13:56:38.161Z,31.63
2018-09-18T13:57:48.454Z,31.68
2018-09-18T13:58:58.310Z,31.75
2018-09-18T14:00:08.438Z,31.8
2018-09-18T14:01:18.439Z,31.86
2018-09-18T14:02:28.902Z,31.95
2018-09-18T14:03:39.100Z,31.92
2018-09-18T14:04:49.137Z,31.88
2018-09-18T14:05:59.684Z,32.01
2018-09-18T14:07:08.998Z,32.11
2018-09-18T14:08:18.794Z,32.21
2018-09-18T14:09:29.837Z,32.19
2018-09-18T14:10:40.265Z,32.19
2018-09-18T14:11:49.867Z,32.28
2018-09-18T14:13:00.014Z,32.43
2018-09-18T14:14:10.469Z,32.29
2018-09-18T14:15:20.461Z,32.37
2018-09-18T14:16:30.123Z,32.41
2018-09-18T14:17:40.227Z,32.41
2018-09-18T14:18:50.390Z,32.4
2018-09-18T14:19:59.981Z,32.63
2018-09-18T14:21:09.845Z,32.6
2018-09-18T14:22:20.007Z,32.7
2018-09-18T14:23:30.340Z,32.79
2018-09-18T14:24:40.205Z,32.84
2018-09-18T14:25:50.096Z,32.96
2018-09-18T14:27:00.239Z,32.72
2018-09-18T14:28:10.581Z,32.7
2018-09-18T14:29:20.448Z,32.78
2018-09-18T14:30:30.307Z,32.44
2018-09-18T14:31:40.474Z,32.32
2018-09-18T14:32:50.356Z,32.33
2018-09-18T14:34:00.512Z,32.33
2018-09-18T14:35:10.422Z,32.22
2018-09-18T14:36:19.469Z,32.23
2018-09-18T14:37:28.791Z,31.92
2018-09-18T14:38:38.376Z,32.04
2018-09-18T14:39:47.698Z,32.13
2018-09-18T14:40:57.850Z,32.11
2018-09-18T14:42:07.708Z,32.03
2018-09-18T14:43:18.074Z,32.03
2018-09-18T14:44:27.926Z,32.07
2018-09-18T14:45:38.077Z,32.03
2018-09-18T14:46:48.247Z,31.76
2018-09-18T14:47:58.616Z,31.75
2018-09-18T14:49:07.659Z,31.68
2018-09-18T14:50:17.244Z,31.72
2018-09-18T14:51:27.115Z,31.63
2018-09-18T14:52:36.978Z,31.65
2018-09-18T14:53:46.578Z,31.68
2018-09-18T14:54:56.744Z,31.57
2018-09-18T14:56:06.609Z,31.57
2018-09-18T14:57:16.701Z,31.46
2018-09-18T14:58:26.286Z,31.34
2018-09-18T14:59:36.147Z,31.31
2018-09-18T15:00:46.265Z,31.41
2018-09-18T15:01:56.118Z,31.46
2018-09-18T15:03:05.970Z,31.31